createdAt,value
2018-08-17T00:04:32.478Z,18.30
2018-08-17T00:09:37.259Z,18.40
2018-08-17T00:14:40.919Z,18.50
2018-08-17T00:19:46.578Z,18.20
2018-08-17T00:24:50.228Z,17.80
2018-08-17T00:29:53.786Z,17.70
2018-08-17T00:34:57.334Z,18.10
2018-08-17T00:40:00.970Z,18.40
2018-08-17T00:45:05.708Z,18.50
2018-08-17T00:50:09.377Z,18.20
2018-08-17T00:55:13.075Z,17.90
2018-08-17T01:00:16.718Z,17.80
2018-08-17T01:05:20.256Z,17.80
2018-08-17T01:10:23.831Z,17.80
2018-08-17T01:15:27.413Z,17.70
2018-08-17T01:20:31.001Z,17.60
2018-08-17T01:25:34.919Z,17.50
2018-08-17T01:30:38.650Z,17.40
2018-08-17T01:35:42.214Z,17.40
2018-08-17T01:40:45.734Z,17.40
2018-08-17T01:45:49.281Z,17.30
2018-08-17T01:50:52.826Z,17.30
2018-08-17T01:55:56.534Z,17.30
2018-08-17T02:01:00.123Z,17.30
2018-08-17T02:06:03.710Z,17.20
2018-08-17T02:11:07.321Z,17.10
2018-08-17T02:16:11.991Z,17.30
2018-08-17T02:21:15.540Z,17.10
2018-08-17T02:26:19.300Z,17.00
2018-08-17T02:31:22.862Z,17.00
2018-08-17T02:36:26.392Z,16.80
2018-08-17T02:41:29.989Z,16.70
2018-08-17T02:46:34.578Z,16.60
2018-08-17T02:51:38.141Z,16.40
2018-08-17T02:56:41.787Z,16.70
2018-08-17T03:01:45.407Z,16.60
2018-08-17T03:06:48.991Z,16.70
2018-08-17T03:11:52.595Z,16.60
2018-08-17T03:16:56.139Z,16.60
2018-08-17T03:21:59.708Z,16.50
2018-08-17T03:27:03.279Z,16.60
2018-08-17T03:32:06.878Z,16.50
2018-08-17T03:37:10.437Z,16.40
2018-08-17T03:42:13.995Z,16.60
2018-08-17T03:47:17.608Z,16.30
2018-08-17T03:52:21.162Z,16.30
2018-08-17T03:57:24.903Z,16.10
2018-08-17T04:02:28.472Z,16.30
2018-08-17T04:07:32.055Z,16.10
2018-08-17T04:12:35.762Z,16.00
2018-08-17T04:17:40.031Z,16.50
2018-08-17T04:22:43.606Z,16.60
2018-08-17T04:27:47.334Z,16.60
2018-08-17T04:32:50.889Z,16.50
2018-08-17T04:37:54.565Z,16.60
2018-08-17T04:42:58.178Z,17.10
2018-08-17T04:48:02.941Z,17.90
2018-08-17T04:53:06.594Z,17.80
2018-08-17T04:58:10.446Z,17.00
2018-08-17T05:03:14.010Z,16.90
2018-08-17T05:08:17.651Z,17.20
2018-08-17T05:13:22.982Z,17.30
2018-08-17T05:18:27.421Z,17.50
2018-08-17T05:23:31.058Z,17.80
2018-08-17T05:28:34.626Z,18.10
2018-08-17T05:33:38.262Z,18.30
2018-08-17T05:38:41.816Z,18.80
2018-08-17T05:43:45.757Z,19.10
2018-08-17T05:48:49.298Z,19.30
2018-08-17T05:53:53.020Z,19.40
2018-08-17T05:58:56.767Z,19.40
2018-08-17T06:04:01.344Z,19.50
2018-08-17T06:09:09.137Z,19.70
2018-08-17T06:14:12.700Z,19.70
2018-08-17T06:19:16.600Z,19.80
2018-08-17T06:24:20.142Z,19.80
2018-08-17T06:29:23.772Z,20.10
2018-08-17T06:34:27.343Z,20.00
2018-08-17T06:39:31.734Z,19.90
2018-08-17T06:44:36.148Z,20.00
2018-08-17T06:49:39.822Z,20.20
2018-08-17T06:54:43.458Z,20.40
2018-08-17T06:59:48.546Z,20.70
2018-08-17T07:04:54.196Z,20.30
2018-08-17T07:09:57.734Z,20.60
2018-08-17T07:15:06.821Z,20.40
2018-08-17T07:20:12.906Z,20.50
2018-08-17T07:25:16.598Z,20.70
2018-08-17T07:30:20.246Z,20.90
2018-08-17T07:35:23.808Z,22.70
2018-08-17T07:40:27.441Z,25.50
2018-08-17T07:45:31.217Z,25.40
2018-08-17T07:50:38.135Z,24.00
2018-08-17T07:55:41.748Z,26.30
2018-08-17T08:00:45.460Z,27.20
2018-08-17T08:05:50.214Z,27.80
2018-08-17T08:10:53.908Z,27.00
2018-08-17T08:15:57.486Z,25.50
2018-08-17T08:21:02.005Z,26.50
2018-08-17T08:26:07.684Z,27.30
2018-08-17T08:31:11.310Z,27.40
2018-08-17T08:36:14.945Z,27.10
2018-08-17T08:41:18.645Z,27.50
2018-08-17T08:46:28.018Z,26.70
2018-08-17T08:51:31.698Z,24.80
2018-08-17T08:56:35.543Z,25.30
2018-08-17T09:01:39.252Z,26.30
2018-08-17T09:06:42.931Z,26.70
2018-08-17T09:11:46.687Z,24.50
2018-08-17T09:16:50.227Z,23.70
2018-08-17T09:21:53.895Z,23.30
2018-08-17T09:26:57.624Z,25.70
2018-08-17T09:32:01.313Z,27.90
2018-08-17T09:37:05.858Z,28.80
2018-08-17T09:42:09.593Z,29.10
2018-08-17T09:47:13.086Z,30.40
2018-08-17T09:57:19.869Z,31.40
2018-08-17T10:02:25.387Z,31.70
2018-08-17T10:07:34.236Z,31.90
2018-08-17T10:12:37.800Z,32.60
2018-08-17T10:17:43.879Z,32.60
2018-08-17T10:22:47.871Z,32.80
2018-08-17T10:27:52.675Z,33.30
2018-08-17T10:33:00.440Z,33.40
2018-08-17T10:38:06.631Z,32.80
2018-08-17T10:43:10.211Z,32.10
2018-08-17T10:48:13.905Z,30.50
2018-08-17T10:53:20.798Z,30.00
2018-08-17T10:58:24.398Z,29.50
2018-08-17T11:03:28.138Z,29.60
2018-08-17T11:08:31.674Z,30.50
2018-08-17T11:13:35.316Z,29.30
2018-08-17T11:18:38.870Z,28.60
2018-08-17T11:23:42.440Z,28.50
2018-08-17T11:28:46.175Z,28.50
2018-08-17T11:33:49.708Z,28.20
2018-08-17T11:38:53.330Z,27.60
2018-08-17T11:49:22.766Z,28.10
2018-08-17T11:54:26.297Z,28.00
2018-08-17T11:59:31.009Z,27.20
2018-08-17T12:04:34.647Z,26.80
2018-08-17T12:09:39.336Z,25.90
2018-08-17T12:14:43.983Z,25.70
2018-08-17T12:19:47.638Z,26.00
2018-08-17T12:24:51.328Z,26.00
2018-08-17T12:29:54.849Z,25.90
2018-08-17T12:34:58.406Z,26.40
2018-08-17T12:40:02.031Z,26.30
2018-08-17T12:45:10.899Z,26.50
2018-08-17T12:50:14.632Z,26.00
2018-08-17T12:55:19.290Z,26.10
2018-08-17T13:00:24.511Z,25.50
2018-08-17T13:05:28.219Z,25.40
2018-08-17T13:10:32.963Z,25.40
2018-08-17T13:15:38.146Z,25.20
2018-08-17T13:20:41.906Z,24.80
2018-08-17T13:25:45.563Z,24.70
2018-08-17T13:30:52.656Z,24.70
2018-08-17T13:35:56.241Z,25.10
2018-08-17T13:40:59.869Z,24.80
2018-08-17T13:46:03.562Z,24.90
2018-08-17T13:51:07.237Z,25.20
2018-08-17T13:56:10.882Z,25.30
2018-08-17T14:01:14.558Z,25.20
2018-08-17T14:06:18.160Z,25.00
2018-08-17T14:11:21.952Z,25.00
2018-08-17T14:16:25.576Z,25.00
2018-08-17T14:21:29.146Z,24.70
2018-08-17T14:26:32.708Z,24.50
2018-08-17T14:31:38.158Z,24.40
2018-08-17T14:36:41.854Z,24.20
2018-08-17T14:41:54.722Z,24.10
2018-08-17T14:47:00.889Z,24.00
2018-08-17T14:52:04.510Z,23.60
2018-08-17T14:57:08.102Z,23.60
2018-08-17T15:02:13.723Z,23.60
2018-08-17T15:07:18.566Z,23.40
2018-08-17T15:12:22.291Z,23.30
2018-08-17T15:17:25.850Z,23.20
2018-08-17T15:22:29.513Z,23.20
2018-08-17T15:27:33.142Z,23.10
2018-08-17T15:32:41.049Z,22.90
2018-08-17T15:37:45.732Z,22.80
2018-08-17T15:42:49.293Z,22.80
2018-08-17T15:47:56.065Z,22.80
2018-08-17T15:53:00.681Z,22.90
2018-08-17T15:58:04.507Z,22.70
2018-08-17T16:03:08.122Z,22.70
2018-08-17T16:08:11.942Z,22.70
2018-08-17T16:13:15.501Z,22.70
2018-08-17T16:18:19.131Z,22.80
2018-08-17T16:23:22.683Z,22.90
2018-08-17T16:28:26.259Z,22.60
2018-08-17T16:33:30.097Z,22.60
2018-08-17T16:38:37.223Z,22.50
2018-08-17T16:43:46.877Z,22.50
2018-08-17T16:48:50.461Z,22.50
2018-08-17T16:53:54.222Z,22.40
2018-08-17T16:59:02.484Z,22.30
2018-08-17T17:04:06.119Z,22.30
2018-08-17T17:09:09.831Z,22.30
2018-08-17T17:14:13.439Z,22.20
2018-08-17T17:19:21.334Z,22.20
2018-08-17T17:24:28.181Z,22.10
2018-08-17T17:29:36.013Z,22.10
2018-08-17T17:34:49.943Z,22.10
2018-08-17T17:39:53.438Z,22.00
2018-08-17T17:44:57.167Z,22.00
2018-08-17T17:50:00.872Z,22.00
2018-08-17T17:55:04.558Z,21.90
2018-08-17T18:00:08.266Z,21.90
2018-08-17T18:05:13.094Z,21.90
2018-08-17T18:10:19.422Z,21.90
2018-08-17T18:15:25.024Z,21.90
2018-08-17T18:20:29.176Z,21.80
2018-08-17T18:25:33.003Z,21.70
2018-08-17T18:30:36.624Z,21.70
2018-08-17T18:35:41.441Z,21.60
2018-08-17T18:40:45.089Z,21.50
2018-08-17T18:45:50.408Z,21.50
2018-08-17T18:50:55.387Z,21.50
2018-08-17T18:55:59.166Z,21.60
2018-08-17T19:01:04.044Z,21.50
2018-08-17T19:06:07.924Z,21.40
2018-08-17T19:11:11.647Z,21.20
2018-08-17T19:16:17.263Z,20.90
2018-08-17T19:21:20.964Z,20.80
2018-08-17T19:26:24.783Z,21.00
2018-08-17T19:31:29.446Z,20.90
2018-08-17T19:36:33.120Z,20.80
2018-08-17T19:41:38.804Z,20.50
2018-08-17T19:46:45.214Z,20.40
2018-08-17T19:51:48.878Z,20.30
2018-08-17T19:56:54.270Z,20.20
2018-08-17T20:01:58.159Z,20.10
2018-08-17T20:07:01.770Z,19.90
2018-08-17T20:12:05.650Z,20.00
2018-08-17T20:17:09.247Z,19.90
2018-08-17T20:22:22.035Z,19.90
2018-08-17T20:27:25.621Z,19.80
2018-08-17T20:32:29.190Z,20.10
2018-08-17T20:37:32.838Z,19.90
2018-08-17T20:42:36.527Z,19.80
2018-08-17T20:47:42.020Z,19.60
2018-08-17T20:52:52.767Z,19.50
2018-08-17T20:57:57.350Z,19.30
2018-08-17T21:03:01.433Z,19.30
2018-08-17T21:08:05.030Z,19.40
2018-08-17T21:13:08.933Z,19.40
2018-08-17T21:18:12.626Z,19.20
2018-08-17T21:23:16.227Z,19.00
2018-08-17T21:28:20.694Z,19.00
2018-08-17T21:33:24.495Z,18.70
2018-08-17T21:38:28.678Z,18.70
2018-08-17T21:43:32.408Z,18.60
2018-08-17T21:48:40.088Z,18.70
2018-08-17T21:53:45.430Z,18.70
2018-08-17T21:58:49.191Z,18.70
2018-08-17T22:03:53.144Z,18.80
2018-08-17T22:08:57.036Z,18.40
2018-08-17T22:14:01.171Z,18.20
2018-08-17T22:19:04.871Z,18.50
2018-08-17T22:24:08.801Z,18.50
2018-08-17T22:29:12.498Z,18.50
2018-08-17T22:34:16.184Z,17.80
2018-08-17T22:39:19.791Z,17.60
2018-08-17T22:44:23.894Z,17.40
2018-08-17T22:49:28.127Z,17.40
2018-08-17T22:54:31.765Z,17.10
2018-08-17T22:59:36.378Z,17.10
2018-08-17T23:04:40.087Z,17.20
2018-08-17T23:09:43.701Z,17.30
2018-08-17T23:14:47.349Z,17.10
2018-08-17T23:19:50.867Z,17.00
2018-08-17T23:24:54.462Z,16.90
2018-08-17T23:29:59.108Z,17.20
2018-08-17T23:35:02.658Z,17.40
2018-08-17T23:40:07.154Z,17.30
2018-08-17T23:45:12.416Z,17.70
2018-08-17T23:50:17.526Z,17.60
2018-08-17T23:55:21.154Z,16.90
